sensor_id;sensor_type;location;lat;lon;timestamp;pressure;altitude;pressure_sealevel;temperature;humidity
54876;BME280;40764;48.472;8.166;2024-02-26T00:02:42;96259.56;;;8.49;66.70
54876;BME280;40764;48.472;8.166;2024-02-26T00:08:42;96242.78;;;8.38;68.76
54876;BME280;40764;48.472;8.166;2024-02-26T00:14:43;96273.56;;;8.30;69.05
54876;BME280;40764;48.472;8.166;2024-02-26T00:20:49;96281.41;;;8.40;68.01
54876;BME280;40764;48.472;8.166;2024-02-26T00:26:49;96282.34;;;8.35;69.55
54876;BME280;40764;48.472;8.166;2024-02-26T00:32:55;96294.06;;;8.36;68.49
54876;BME280;40764;48.472;8.166;2024-02-26T00:38:55;96315.19;;;8.39;69.29
54876;BME280;40764;48.472;8.166;2024-02-26T00:44:56;96320.03;;;8.63;69.20
54876;BME280;40764;48.472;8.166;2024-02-26T00:50:56;96320.56;;;8.56;72.58
54876;BME280;40764;48.472;8.166;2024-02-26T00:56:56;96316.63;;;8.28;76.78
54876;BME280;40764;48.472;8.166;2024-02-26T01:02:56;96315.59;;;8.03;78.82
54876;BME280;40764;48.472;8.166;2024-02-26T01:08:57;96326.97;;;7.96;81.58
54876;BME280;40764;48.472;8.166;2024-02-26T01:14:57;96334.00;;;7.97;81.19
54876;BME280;40764;48.472;8.166;2024-02-26T01:20:58;96327.63;;;7.93;83.37
54876;BME280;40764;48.472;8.166;2024-02-26T01:26:58;96321.56;;;7.79;83.67
54876;BME280;40764;48.472;8.166;2024-02-26T01:32:58;96327.50;;;7.64;84.35
54876;BME280;40764;48.472;8.166;2024-02-26T01:38:58;96319.50;;;7.50;86.36
54876;BME280;40764;48.472;8.166;2024-02-26T01:44:59;96307.06;;;7.32;87.86
54876;BME280;40764;48.472;8.166;2024-02-26T01:50:59;96295.38;;;7.05;90.48
54876;BME280;40764;48.472;8.166;2024-02-26T01:57:00;96299.22;;;7.04;92.66
54876;BME280;40764;48.472;8.166;2024-02-26T02:03:02;96291.88;;;7.31;92.11
54876;BME280;40764;48.472;8.166;2024-02-26T02:09:03;96286.91;;;7.07;93.75
54876;BME280;40764;48.472;8.166;2024-02-26T02:15:07;96282.09;;;7.12;94.90
54876;BME280;40764;48.472;8.166;2024-02-26T02:21:07;96272.97;;;7.43;92.69
54876;BME280;40764;48.472;8.166;2024-02-26T02:27:08;96251.41;;;7.21;93.73
54876;BME280;40764;48.472;8.166;2024-02-26T02:33:08;96258.94;;;7.15;95.95
54876;BME280;40764;48.472;8.166;2024-02-26T02:39:09;96259.56;;;7.12;94.99
54876;BME280;40764;48.472;8.166;2024-02-26T02:45:09;96253.19;;;6.99;96.83
54876;BME280;40764;48.472;8.166;2024-02-26T02:51:10;96246.59;;;6.83;99.37
54876;BME280;40764;48.472;8.166;2024-02-26T02:57:10;96245.03;;;6.99;99.93
54876;BME280;40764;48.472;8.166;2024-02-26T03:03:11;96247.56;;;6.87;100.00
54876;BME280;40764;48.472;8.166;2024-02-26T03:09:11;96251.59;;;6.98;100.00
54876;BME280;40764;48.472;8.166;2024-02-26T03:15:12;96240.22;;;7.05;100.00
54876;BME280;40764;48.472;8.166;2024-02-26T03:21:12;96238.63;;;7.04;100.00
54876;BME280;40764;48.472;8.166;2024-02-26T03:27:12;96238.00;;;7.24;100.00
54876;BME280;40764;48.472;8.166;2024-02-26T03:33:13;96249.50;;;6.95;100.00
54876;BME280;40764;48.472;8.166;2024-02-26T03:39:13;96253.34;;;7.11;100.00
54876;BME280;40764;48.472;8.166;2024-02-26T03:45:13;96248.41;;;6.96;100.00
54876;BME280;40764;48.472;8.166;2024-02-26T03:51:13;96247.59;;;7.04;100.00
54876;BME280;40764;48.472;8.166;2024-02-26T03:57:14;96262.91;;;7.18;100.00
54876;BME280;40764;48.472;8.166;2024-02-26T04:03:14;96263.72;;;7.27;100.00
54876;BME280;40764;48.472;8.166;2024-02-26T04:09:14;96263.56;;;7.32;100.00
54876;BME280;40764;48.472;8.166;2024-02-26T04:15:15;96275.69;;;7.43;100.00
54876;BME280;40764;48.472;8.166;2024-02-26T04:21:15;96280.19;;;7.39;100.00
54876;BME280;40764;48.472;8.166;2024-02-26T04:27:15;96287.69;;;7.16;100.00
54876;BME280;40764;48.472;8.166;2024-02-26T04:33:17;96299.69;;;7.15;100.00
54876;BME280;40764;48.472;8.166;2024-02-26T04:39:17;96299.69;;;7.06;100.00
54876;BME280;40764;48.472;8.166;2024-02-26T04:45:17;96300.81;;;6.97;100.00
54876;BME280;40764;48.472;8.166;2024-02-26T04:51:18;96303.03;;;7.12;100.00
54876;BME280;40764;48.472;8.166;2024-02-26T04:57:18;96287.53;;;7.21;100.00
54876;BME280;40764;48.472;8.166;2024-02-26T05:03:18;96304.47;;;7.18;100.00
54876;BME280;40764;48.472;8.166;2024-02-26T05:09:19;96301.28;;;7.16;100.00
54876;BME280;40764;48.472;8.166;2024-02-26T05:15:19;96283.22;;;7.20;100.00
54876;BME280;40764;48.472;8.166;2024-02-26T05:21:19;96294.56;;;7.13;100.00
54876;BME280;40764;48.472;8.166;2024-02-26T05:27:19;96278.25;;;7.13;100.00
54876;BME280;40764;48.472;8.166;2024-02-26T05:33:20;96287.53;;;7.21;100.00
54876;BME280;40764;48.472;8.166;2024-02-26T05:39:20;96292.00;;;7.17;100.00
54876;BME280;40764;48.472;8.166;2024-02-26T05:45:20;96288.66;;;7.11;100.00
54876;BME280;40764;48.472;8.166;2024-02-26T05:51:21;96299.53;;;7.20;100.00
54876;BME280;40764;48.472;8.166;2024-02-26T05:57:22;96304.47;;;7.09;100.00
54876;BME280;40764;48.472;8.166;2024-02-26T06:03:22;96311.97;;;7.21;100.00
54876;BME280;40764;48.472;8.166;2024-02-26T06:09:23;96306.41;;;7.26;100.00
54876;BME280;40764;48.472;8.166;2024-02-26T06:15:23;96313.59;;;7.57;100.00
54876;BME280;40764;48.472;8.166;2024-02-26T06:21:23;96329.44;;;7.63;100.00
54876;BME280;40764;48.472;8.166;2024-02-26T06:27:24;96332.16;;;7.55;100.00
54876;BME280;40764;48.472;8.166;2024-02-26T06:33:24;96338.88;;;7.31;100.00
54876;BME280;40764;48.472;8.166;2024-02-26T06:39:25;96344.78;;;7.25;100.00
54876;BME280;40764;48.472;8.166;2024-02-26T06:45:25;96346.06;;;7.53;100.00
54876;BME280;40764;48.472;8.166;2024-02-26T06:51:25;96353.59;;;7.30;100.00
54876;BME280;40764;48.472;8.166;2024-02-26T06:57:25;96348.94;;;7.31;100.00
54876;BME280;40764;48.472;8.166;2024-02-26T07:03:26;96359.81;;;7.39;100.00
54876;BME280;40764;48.472;8.166;2024-02-26T07:09:26;96364.94;;;7.41;100.00
54876;BME280;40764;48.472;8.166;2024-02-26T07:15:26;96354.03;;;7.50;100.00
54876;BME280;40764;48.472;8.166;2024-02-26T07:21:26;96361.88;;;7.51;100.00
54876;BME280;40764;48.472;8.166;2024-02-26T07:27:27;96351.97;;;7.38;100.00
54876;BME280;40764;48.472;8.166;2024-02-26T07:33:27;96352.44;;;7.49;100.00
54876;BME280;40764;48.472;8.166;2024-02-26T07:39:27;96365.91;;;7.62;100.00
54876;BME280;40764;48.472;8.166;2024-02-26T07:45:28;96363.81;;;7.76;100.00
54876;BME280;40764;48.472;8.166;2024-02-26T07:51:28;96366.84;;;7.84;100.00
54876;BME280;40764;48.472;8.166;2024-02-26T07:57:28;96379.13;;;8.07;100.00
54876;BME280;40764;48.472;8.166;2024-02-26T08:03:29;96380.41;;;8.18;100.00
54876;BME280;40764;48.472;8.166;2024-02-26T08:09:29;96379.19;;;8.54;100.00
54876;BME280;40764;48.472;8.166;2024-02-26T08:15:29;96370.22;;;8.91;100.00
54876;BME280;40764;48.472;8.166;2024-02-26T08:21:29;96366.25;;;9.39;100.00
54876;BME280;40764;48.472;8.166;2024-02-26T08:27:30;96375.38;;;9.43;100.00
54876;BME280;40764;48.472;8.166;2024-02-26T08:33:30;96389.41;;;9.54;100.00
54876;BME280;40764;48.472;8.166;2024-02-26T08:39:30;96383.22;;;9.45;100.00
54876;BME280;40764;48.472;8.166;2024-02-26T08:45:31;96392.13;;;9.33;100.00
54876;BME280;40764;48.472;8.166;2024-02-26T08:51:31;96399.38;;;9.50;100.00
54876;BME280;40764;48.472;8.166;2024-02-26T08:57:31;96404.84;;;9.71;100.00
54876;BME280;40764;48.472;8.166;2024-02-26T09:03:33;96392.13;;;9.75;100.00
54876;BME280;40764;48.472;8.166;2024-02-26T09:09:34;96391.66;;;9.93;100.00
54876;BME280;40764;48.472;8.166;2024-02-26T09:15:34;96404.97;;;9.74;100.00
54876;BME280;40764;48.472;8.166;2024-02-26T09:21:34;96408.22;;;10.09;100.00
54876;BME280;40764;48.472;8.166;2024-02-26T09:27:35;96391.38;;;10.07;100.00
54876;BME280;40764;48.472;8.166;2024-02-26T09:33:35;96394.22;;;10.32;100.00
54876;BME280;40764;48.472;8.166;2024-02-26T09:39:35;96388.97;;;10.72;100.00
54876;BME280;40764;48.472;8.166;2024-02-26T09:45:37;96401.75;;;11.04;99.42
54876;BME280;40764;48.472;8.166;2024-02-26T09:51:38;96415.53;;;11.08;98.95
54876;BME280;40764;48.472;8.166;2024-02-26T09:57:44;96433.28;;;11.26;98.57
54876;BME280;40764;48.472;8.166;2024-02-26T10:03:48;96431.78;;;11.65;96.84
54876;BME280;40764;48.472;8.166;2024-02-26T10:09:51;96424.97;;;11.59;97.48
54876;BME280;40764;48.472;8.166;2024-02-26T10:15:52;96442.03;;;11.81;98.25
54876;BME280;40764;48.472;8.166;2024-02-26T10:21:56;96434.91;;;12.04;95.34
54876;BME280;40764;48.472;8.166;2024-02-26T10:28:01;96434.41;;;12.42;93.09
54876;BME280;40764;48.472;8.166;2024-02-26T10:34:04;96429.13;;;12.77;90.28
54876;BME280;40764;48.472;8.166;2024-02-26T10:40:05;96432.44;;;12.70;86.89
54876;BME280;40764;48.472;8.166;2024-02-26T10:46:07;96433.03;;;12.48;87.62
54876;BME280;40764;48.472;8.166;2024-02-26T10:52:08;96441.00;;;12.53;90.73
54876;BME280;40764;48.472;8.166;2024-02-26T10:58:10;96454.19;;;13.23;85.80
54876;BME280;40764;48.472;8.166;2024-02-26T11:04:11;96450.47;;;13.47;82.33
54876;BME280;40764;48.472;8.166;2024-02-26T11:10:12;96445.69;;;13.44;80.35
54876;BME280;40764;48.472;8.166;2024-02-26T11:16:12;96443.81;;;13.63;80.83
54876;BME280;40764;48.472;8.166;2024-02-26T11:22:13;96456.69;;;13.79;77.77
54876;BME280;40764;48.472;8.166;2024-02-26T11:28:16;96465.81;;;13.83;79.92
54876;BME280;40764;48.472;8.166;2024-02-26T11:34:18;96463.75;;;13.45;80.05
54876;BME280;40764;48.472;8.166;2024-02-26T11:40:19;96461.25;;;13.55;80.38
54876;BME280;40764;48.472;8.166;2024-02-26T11:46:27;96462.53;;;13.42;80.59
54876;BME280;40764;48.472;8.166;2024-02-26T11:52:28;96460.13;;;13.91;80.90
54876;BME280;40764;48.472;8.166;2024-02-26T11:58:31;96460.16;;;14.11;78.67
54876;BME280;40764;48.472;8.166;2024-02-26T12:04:32;96449.13;;;14.26;77.71
54876;BME280;40764;48.472;8.166;2024-02-26T12:10:36;96439.19;;;14.03;78.29
54876;BME280;40764;48.472;8.166;2024-02-26T12:16:39;96440.44;;;14.44;77.34
54876;BME280;40764;48.472;8.166;2024-02-26T12:22:40;96444.56;;;14.34;77.47
54876;BME280;40764;48.472;8.166;2024-02-26T12:28:41;96444.47;;;14.69;76.87
54876;BME280;40764;48.472;8.166;2024-02-26T12:34:41;96447.31;;;14.96;74.49
54876;BME280;40764;48.472;8.166;2024-02-26T12:40:41;96447.91;;;15.05;75.20
54876;BME280;40764;48.472;8.166;2024-02-26T12:46:42;96458.97;;;15.08;72.17
54876;BME280;40764;48.472;8.166;2024-02-26T12:52:51;96460.06;;;15.04;67.62
54876;BME280;40764;48.472;8.166;2024-02-26T12:58:52;96454.13;;;15.25;69.88
54876;BME280;40764;48.472;8.166;2024-02-26T13:04:54;96465.13;;;15.25;66.08
54876;BME280;40764;48.472;8.166;2024-02-26T13:10:54;96466.44;;;15.08;66.44
54876;BME280;40764;48.472;8.166;2024-02-26T13:16:55;96472.16;;;14.99;67.90
54876;BME280;40764;48.472;8.166;2024-02-26T13:23:03;96468.75;;;15.06;65.07
54876;BME280;40764;48.472;8.166;2024-02-26T13:29:06;96463.28;;;15.32;62.30
54876;BME280;40764;48.472;8.166;2024-02-26T13:35:12;96465.97;;;15.29;57.99
54876;BME280;40764;48.472;8.166;2024-02-26T13:41:12;96462.31;;;14.98;56.24
54876;BME280;40764;48.472;8.166;2024-02-26T13:47:13;96461.28;;;15.29;55.74
54876;BME280;40764;48.472;8.166;2024-02-26T13:53:13;96468.19;;;15.19;55.80
54876;BME280;40764;48.472;8.166;2024-02-26T13:59:14;96464.22;;;15.17;56.08
54876;BME280;40764;48.472;8.166;2024-02-26T14:05:14;96473.81;;;15.04;58.56
54876;BME280;40764;48.472;8.166;2024-02-26T14:11:14;96460.28;;;14.95;64.26
54876;BME280;40764;48.472;8.166;2024-02-26T14:17:15;96458.38;;;14.76;66.39
54876;BME280;40764;48.472;8.166;2024-02-26T14:23:15;96461.06;;;14.53;72.93
54876;BME280;40764;48.472;8.166;2024-02-26T14:29:16;96475.72;;;14.42;74.09
54876;BME280;40764;48.472;8.166;2024-02-26T14:35:16;96484.97;;;14.34;71.30
54876;BME280;40764;48.472;8.166;2024-02-26T14:41:17;96489.47;;;14.22;72.53
54876;BME280;40764;48.472;8.166;2024-02-26T14:47:17;96496.59;;;14.08;74.53
54876;BME280;40764;48.472;8.166;2024-02-26T14:53:18;96476.69;;;13.95;75.89
54876;BME280;40764;48.472;8.166;2024-02-26T14:59:21;96481.19;;;14.03;73.14
54876;BME280;40764;48.472;8.166;2024-02-26T15:05:21;96495.31;;;13.86;72.30
54876;BME280;40764;48.472;8.166;2024-02-26T15:11:22;96499.84;;;13.78;73.51
54876;BME280;40764;48.472;8.166;2024-02-26T15:17:22;96505.78;;;13.80;72.16
54876;BME280;40764;48.472;8.166;2024-02-26T15:23:22;96505.84;;;13.84;71.97
54876;BME280;40764;48.472;8.166;2024-02-26T15:29:23;96511.53;;;13.75;70.18
54876;BME280;40764;48.472;8.166;2024-02-26T15:35:23;96509.50;;;13.56;68.96
54876;BME280;40764;48.472;8.166;2024-02-26T15:41:23;96514.41;;;13.31;70.26
54876;BME280;40764;48.472;8.166;2024-02-26T15:47:24;96521.00;;;13.15;68.34
54876;BME280;40764;48.472;8.166;2024-02-26T15:53:24;96529.78;;;13.20;68.34
54876;BME280;40764;48.472;8.166;2024-02-26T15:59:25;96530.94;;;13.19;68.82
54876;BME280;40764;48.472;8.166;2024-02-26T16:05:25;96554.34;;;13.17;70.39
54876;BME280;40764;48.472;8.166;2024-02-26T16:11:26;96563.63;;;13.12;72.67
54876;BME280;40764;48.472;8.166;2024-02-26T16:17:36;96561.72;;;12.85;74.91
54876;BME280;40764;48.472;8.166;2024-02-26T16:23:37;96559.22;;;12.52;75.05
54876;BME280;40764;48.472;8.166;2024-02-26T16:29:37;96580.13;;;12.44;78.47
54876;BME280;40764;48.472;8.166;2024-02-26T16:35:38;96580.28;;;12.23;82.85
54876;BME280;40764;48.472;8.166;2024-02-26T16:41:38;96587.47;;;12.16;84.06
54876;BME280;40764;48.472;8.166;2024-02-26T16:47:38;96600.81;;;11.81;85.61
54876;BME280;40764;48.472;8.166;2024-02-26T16:53:39;96605.63;;;11.84;85.87
54876;BME280;40764;48.472;8.166;2024-02-26T16:59:39;96608.19;;;11.56;88.06
54876;BME280;40764;48.472;8.166;2024-02-26T17:05:39;96606.97;;;11.20;90.40
54876;BME280;40764;48.472;8.166;2024-02-26T17:11:40;96626.22;;;10.91;91.56
54876;BME280;40764;48.472;8.166;2024-02-26T17:17:41;96636.84;;;10.71;92.95
54876;BME280;40764;48.472;8.166;2024-02-26T17:23:42;96631.09;;;10.64;93.47
54876;BME280;40764;48.472;8.166;2024-02-26T17:29:42;96644.91;;;10.47;93.42
54876;BME280;40764;48.472;8.166;2024-02-26T17:35:43;96650.03;;;10.48;93.96
54876;BME280;40764;48.472;8.166;2024-02-26T17:41:43;96669.19;;;10.40;94.26
54876;BME280;40764;48.472;8.166;2024-02-26T17:47:43;96674.56;;;10.28;94.38
54876;BME280;40764;48.472;8.166;2024-02-26T17:53:48;96684.84;;;10.31;95.69
54876;BME280;40764;48.472;8.166;2024-02-26T17:59:50;96683.16;;;10.09;96.37
54876;BME280;40764;48.472;8.166;2024-02-26T18:05:51;96695.81;;;10.22;96.11
54876;BME280;40764;48.472;8.166;2024-02-26T18:11:54;96716.19;;;10.24;95.39
54876;BME280;40764;48.472;8.166;2024-02-26T18:17:55;96717.03;;;10.08;96.20
54876;BME280;40764;48.472;8.166;2024-02-26T18:23:55;96725.38;;;10.11;94.50
54876;BME280;40764;48.472;8.166;2024-02-26T18:29:56;96743.41;;;10.04;94.99
54876;BME280;40764;48.472;8.166;2024-02-26T18:35:56;96750.69;;;9.91;95.93
54876;BME280;40764;48.472;8.166;2024-02-26T18:41:56;96758.34;;;9.98;95.01
54876;BME280;40764;48.472;8.166;2024-02-26T18:47:58;96760.13;;;9.93;94.05
54876;BME280;40764;48.472;8.166;2024-02-26T18:53:59;96764.47;;;9.94;92.27
54876;BME280;40764;48.472;8.166;2024-02-26T18:59:59;96777.09;;;10.08;89.97
54876;BME280;40764;48.472;8.166;2024-02-26T19:06:00;96789.81;;;10.04;89.49
54876;BME280;40764;48.472;8.166;2024-02-26T19:12:05;96803.75;;;10.11;89.05
54876;BME280;40764;48.472;8.166;2024-02-26T19:18:09;96815.69;;;9.98;89.33
54876;BME280;40764;48.472;8.166;2024-02-26T19:24:10;96823.25;;;9.92;89.03
54876;BME280;40764;48.472;8.166;2024-02-26T19:30:12;96833.53;;;9.78;89.22
54876;BME280;40764;48.472;8.166;2024-02-26T19:36:13;96839.81;;;9.44;90.87
54876;BME280;40764;48.472;8.166;2024-02-26T19:42:13;96843.97;;;9.41;90.50
54876;BME280;40764;48.472;8.166;2024-02-26T19:48:14;96850.41;;;9.62;89.02
54876;BME280;40764;48.472;8.166;2024-02-26T19:54:15;96856.66;;;9.63;88.96
54876;BME280;40764;48.472;8.166;2024-02-26T20:00:15;96858.09;;;9.35;89.47
54876;BME280;40764;48.472;8.166;2024-02-26T20:06:20;96864.78;;;9.03;92.66
54876;BME280;40764;48.472;8.166;2024-02-26T20:12:20;96880.50;;;9.14;91.45
54876;BME280;40764;48.472;8.166;2024-02-26T20:18:20;96880.34;;;9.11;90.69
54876;BME280;40764;48.472;8.166;2024-02-26T20:24:21;96881.47;;;9.01;91.50
54876;BME280;40764;48.472;8.166;2024-02-26T20:30:22;96889.66;;;9.10;92.24
54876;BME280;40764;48.472;8.166;2024-02-26T20:36:33;96900.72;;;9.13;91.34
54876;BME280;40764;48.472;8.166;2024-02-26T20:42:33;96900.22;;;9.03;91.62
54876;BME280;40764;48.472;8.166;2024-02-26T20:48:34;96908.88;;;9.05;91.99
54876;BME280;40764;48.472;8.166;2024-02-26T20:54:34;96913.06;;;9.11;92.93
54876;BME280;40764;48.472;8.166;2024-02-26T21:00:35;96917.84;;;9.05;93.26
54876;BME280;40764;48.472;8.166;2024-02-26T21:06:36;96921.06;;;9.07;92.48
54876;BME280;40764;48.472;8.166;2024-02-26T21:12:37;96942.06;;;8.98;93.68
54876;BME280;40764;48.472;8.166;2024-02-26T21:18:38;96958.56;;;9.02;92.88
54876;BME280;40764;48.472;8.166;2024-02-26T21:24:39;96970.06;;;8.90;92.80
54876;BME280;40764;48.472;8.166;2024-02-26T21:30:40;96980.09;;;9.12;91.61
54876;BME280;40764;48.472;8.166;2024-02-26T21:36:40;96994.06;;;8.79;94.04
54876;BME280;40764;48.472;8.166;2024-02-26T21:42:41;96994.56;;;8.81;94.42
54876;BME280;40764;48.472;8.166;2024-02-26T21:48:42;97008.22;;;8.90;93.05
54876;BME280;40764;48.472;8.166;2024-02-26T21:54:49;97025.63;;;8.80;93.13
54876;BME280;40764;48.472;8.166;2024-02-26T22:00:49;97029.94;;;8.73;94.12
54876;BME280;40764;48.472;8.166;2024-02-26T22:06:50;97037.78;;;8.74;93.28
54876;BME280;40764;48.472;8.166;2024-02-26T22:12:51;97055.13;;;8.78;93.80
54876;BME280;40764;48.472;8.166;2024-02-26T22:18:51;97048.38;;;8.76;93.59
54876;BME280;40764;48.472;8.166;2024-02-26T22:24:52;97055.13;;;8.56;95.24
54876;BME280;40764;48.472;8.166;2024-02-26T22:30:52;97056.81;;;8.43;96.22
54876;BME280;40764;48.472;8.166;2024-02-26T22:36:52;97058.28;;;8.49;95.87
54876;BME280;40764;48.472;8.166;2024-02-26T22:42:53;97058.91;;;8.46;96.18
54876;BME280;40764;48.472;8.166;2024-02-26T22:48:55;97066.66;;;8.53;95.73
54876;BME280;40764;48.472;8.166;2024-02-26T22:54:55;97090.09;;;8.62;95.26
54876;BME280;40764;48.472;8.166;2024-02-26T23:00:56;97089.50;;;8.43;96.49
54876;BME280;40764;48.472;8.166;2024-02-26T23:06:56;97100.00;;;8.58;95.28
54876;BME280;40764;48.472;8.166;2024-02-26T23:13:03;97107.00;;;8.51;95.82
54876;BME280;40764;48.472;8.166;2024-02-26T23:19:05;97104.84;;;8.84;92.78
54876;BME280;40764;48.472;8.166;2024-02-26T23:25:07;97110.81;;;9.17;87.37
54876;BME280;40764;48.472;8.166;2024-02-26T23:31:08;97107.34;;;9.65;80.55
54876;BME280;40764;48.472;8.166;2024-02-26T23:37:08;97117.13;;;9.57;80.67
54876;BME280;40764;48.472;8.166;2024-02-26T23:43:10;97126.94;;;9.67;77.82
54876;BME280;40764;48.472;8.166;2024-02-26T23:49:11;97113.50;;;9.79;76.02
54876;BME280;40764;48.472;8.166;2024-02-26T23:55:11;97125.84;;;9.76;77.06
